North Miami, Florida
Current Conditions -  °F | °C
As of 6:53 PM on Saturday 25 Oct 2014 (Local Time) from KOPF Reporting Station
Clear Clear  
Wind Chill: 77°   Ceiling: Unl
Heat Index: 79°   Visibility: 10mi
Dew Point: 60°   Wind: 8mph
Humidity: 56%   Direction: 50°NE
Pressure: 29.9"   Gusts: NA
Location:  25.9°N, 80.19°W
Report Text: KOPF 252253Z 05007KT 10SM CLR 25/16 A2990 RMK AO2 SLP127 T02500156 $
Loading
Personal Weather Stations






























Interactive Weather Map
Tropical Storm Tracking
New forecast layout! Learn more

10-Day Weather Forecast

Advertisements
Track Severe Weather on mobile